Dighton, Kansas
Current Conditions -  °F | °C
As of 7:54 AM on Saturday 25 Oct 2014 (Local Time) from KGCK Reporting Station
Clear Clear  
Wind Chill: 44°   Ceiling: Unl
Heat Index: 47°   Visibility: 10mi
Dew Point: 41°   Wind: 6mph
Humidity: 80%   Direction: 250°WSW
Pressure: 30.08"   Gusts: NA
Location:  38.48°N, 100.47°W
Report Text: KGCK 251254Z 25005KT 10SM CLR 08/05 A3008 RMK AO2 SLP173 T00830050
Loading
Personal Weather Stations






























Interactive Weather Map
Tropical Storm Tracking
New forecast layout! Learn more

10-Day Weather Forecast

Advertisements
Track Severe Weather on mobile